sensor_id;sensor_type;location;lat;lon;timestamp;noise_LAeq;noise_LA_min;noise_LA_max;noise_LA01;noise_LA95
37163;Laerm;23057;48.554;14.454;2023-03-25T00:01:57;49.82;48.90;50.90;;
37163;Laerm;23057;48.554;14.454;2023-03-25T00:04:28;49.82;48.71;50.95;;
37163;Laerm;23057;48.554;14.454;2023-03-25T00:06:58;49.82;48.85;50.92;;
37163;Laerm;23057;48.554;14.454;2023-03-25T00:09:29;49.82;48.95;51.60;;
37163;Laerm;23057;48.554;14.454;2023-03-25T00:12:00;49.81;48.76;50.98;;
37163;Laerm;23057;48.554;14.454;2023-03-25T00:14:31;49.82;48.85;50.85;;
37163;Laerm;23057;48.554;14.454;2023-03-25T00:17:02;49.83;48.76;50.98;;
37163;Laerm;23057;48.554;14.454;2023-03-25T00:19:33;49.82;48.71;51.34;;
37163;Laerm;23057;48.554;14.454;2023-03-25T00:22:05;49.82;48.70;51.00;;
37163;Laerm;23057;48.554;14.454;2023-03-25T00:24:35;49.81;48.61;51.10;;
37163;Laerm;23057;48.554;14.454;2023-03-25T00:27:06;49.82;48.71;52.12;;
37163;Laerm;23057;48.554;14.454;2023-03-25T00:29:37;49.83;48.71;51.67;;
37163;Laerm;23057;48.554;14.454;2023-03-25T00:32:09;49.81;48.66;51.15;;
37163;Laerm;23057;48.554;14.454;2023-03-25T00:34:40;49.83;48.71;51.90;;
37163;Laerm;23057;48.554;14.454;2023-03-25T00:37:16;49.82;48.81;51.72;;
37163;Laerm;23057;48.554;14.454;2023-03-25T00:39:47;49.83;48.84;52.26;;
37163;Laerm;23057;48.554;14.454;2023-03-25T00:42:18;49.82;48.63;51.02;;
37163;Laerm;23057;48.554;14.454;2023-03-25T00:44:55;49.82;48.70;51.17;;
37163;Laerm;23057;48.554;14.454;2023-03-25T00:47:26;49.81;48.71;50.91;;
37163;Laerm;23057;48.554;14.454;2023-03-25T00:49:57;49.82;48.84;51.70;;
37163;Laerm;23057;48.554;14.454;2023-03-25T00:52:27;49.83;48.78;51.15;;
37163;Laerm;23057;48.554;14.454;2023-03-25T00:54:58;49.84;48.84;50.85;;
37163;Laerm;23057;48.554;14.454;2023-03-25T00:57:30;49.84;48.76;50.90;;
37163;Laerm;23057;48.554;14.454;2023-03-25T01:00:03;49.84;48.67;51.44;;
37163;Laerm;23057;48.554;14.454;2023-03-25T01:02:36;49.83;48.87;50.99;;
37163;Laerm;23057;48.554;14.454;2023-03-25T01:05:09;49.82;48.77;50.99;;
37163;Laerm;23057;48.554;14.454;2023-03-25T01:07:40;49.84;48.83;51.19;;
37163;Laerm;23057;48.554;14.454;2023-03-25T01:10:11;49.84;48.76;51.76;;
37163;Laerm;23057;48.554;14.454;2023-03-25T01:12:42;49.84;48.63;51.47;;
37163;Laerm;23057;48.554;14.454;2023-03-25T01:15:13;49.84;48.74;50.90;;
37163;Laerm;23057;48.554;14.454;2023-03-25T01:17:44;49.84;48.74;50.89;;
37163;Laerm;23057;48.554;14.454;2023-03-25T01:20:15;49.84;48.73;50.96;;
37163;Laerm;23057;48.554;14.454;2023-03-25T01:22:46;49.84;48.64;51.07;;
37163;Laerm;23057;48.554;14.454;2023-03-25T01:25:17;49.83;48.52;51.03;;
37163;Laerm;23057;48.554;14.454;2023-03-25T01:27:48;49.85;48.81;51.33;;
37163;Laerm;23057;48.554;14.454;2023-03-25T01:30:18;49.84;48.81;51.48;;
37163;Laerm;23057;48.554;14.454;2023-03-25T01:32:49;49.83;48.77;51.20;;
37163;Laerm;23057;48.554;14.454;2023-03-25T01:35:20;49.84;48.60;51.01;;
37163;Laerm;23057;48.554;14.454;2023-03-25T01:37:51;49.84;48.74;51.07;;
37163;Laerm;23057;48.554;14.454;2023-03-25T01:40:23;49.83;48.69;51.65;;
37163;Laerm;23057;48.554;14.454;2023-03-25T01:42:54;49.83;48.80;50.99;;
37163;Laerm;23057;48.554;14.454;2023-03-25T01:45:30;49.85;48.87;51.50;;
37163;Laerm;23057;48.554;14.454;2023-03-25T01:50:46;49.84;48.74;51.63;;
37163;Laerm;23057;48.554;14.454;2023-03-25T01:53:20;49.84;48.90;51.19;;
37163;Laerm;23057;48.554;14.454;2023-03-25T01:55:51;49.84;48.80;51.03;;
37163;Laerm;23057;48.554;14.454;2023-03-25T01:58:24;49.82;48.73;50.77;;
37163;Laerm;23057;48.554;14.454;2023-03-25T02:00:58;49.84;48.71;51.18;;
37163;Laerm;23057;48.554;14.454;2023-03-25T02:03:31;49.86;48.77;50.97;;
37163;Laerm;23057;48.554;14.454;2023-03-25T02:06:14;49.86;48.63;51.48;;
37163;Laerm;23057;48.554;14.454;2023-03-25T02:08:47;49.85;48.48;52.52;;
37163;Laerm;23057;48.554;14.454;2023-03-25T02:11:19;49.86;48.64;51.44;;
37163;Laerm;23057;48.554;14.454;2023-03-25T02:13:51;49.85;48.73;51.19;;
37163;Laerm;23057;48.554;14.454;2023-03-25T02:28:56;49.84;48.48;50.98;;
37163;Laerm;23057;48.554;14.454;2023-03-25T02:35:04;49.84;48.81;51.08;;
37163;Laerm;23057;48.554;14.454;2023-03-25T02:38:17;49.83;48.49;51.20;;
37163;Laerm;23057;48.554;14.454;2023-03-25T02:46:40;49.85;48.71;50.95;;
37163;Laerm;23057;48.554;14.454;2023-03-25T02:52:26;49.85;48.85;51.50;;
37163;Laerm;23057;48.554;14.454;2023-03-25T02:55:01;49.85;48.91;51.04;;
37163;Laerm;23057;48.554;14.454;2023-03-25T02:57:39;49.85;48.83;51.31;;
37163;Laerm;23057;48.554;14.454;2023-03-25T03:00:14;49.85;48.81;51.35;;
37163;Laerm;23057;48.554;14.454;2023-03-25T03:02:54;49.84;48.81;51.17;;
37163;Laerm;23057;48.554;14.454;2023-03-25T03:05:43;49.85;48.90;51.89;;
37163;Laerm;23057;48.554;14.454;2023-03-25T03:08:40;49.84;48.66;51.05;;
37163;Laerm;23057;48.554;14.454;2023-03-25T03:11:34;49.85;48.85;51.83;;
37163;Laerm;23057;48.554;14.454;2023-03-25T03:17:12;49.86;48.63;51.25;;
37163;Laerm;23057;48.554;14.454;2023-03-25T03:19:58;49.85;48.78;51.22;;
37163;Laerm;23057;48.554;14.454;2023-03-25T03:23:07;49.85;48.80;51.04;;
37163;Laerm;23057;48.554;14.454;2023-03-25T03:25:54;49.87;48.59;51.15;;
37163;Laerm;23057;48.554;14.454;2023-03-25T03:28:38;49.86;48.64;51.13;;
37163;Laerm;23057;48.554;14.454;2023-03-25T03:31:24;49.86;48.80;51.92;;
37163;Laerm;23057;48.554;14.454;2023-03-25T03:34:03;49.86;48.74;51.02;;
37163;Laerm;23057;48.554;14.454;2023-03-25T03:36:45;49.84;48.77;51.63;;
37163;Laerm;23057;48.554;14.454;2023-03-25T03:39:25;49.85;48.46;51.24;;
37163;Laerm;23057;48.554;14.454;2023-03-25T03:44:49;49.85;48.71;50.99;;
37163;Laerm;23057;48.554;14.454;2023-03-25T03:47:32;49.86;48.71;51.44;;
37163;Laerm;23057;48.554;14.454;2023-03-25T03:50:15;49.87;48.48;51.82;;
37163;Laerm;23057;48.554;14.454;2023-03-25T03:53:09;49.85;48.80;51.49;;
37163;Laerm;23057;48.554;14.454;2023-03-25T03:56:13;49.86;48.71;51.64;;
37163;Laerm;23057;48.554;14.454;2023-03-25T03:58:52;49.85;48.88;50.92;;
37163;Laerm;23057;48.554;14.454;2023-03-25T04:01:39;49.85;48.71;51.87;;
37163;Laerm;23057;48.554;14.454;2023-03-25T04:04:21;49.85;48.84;50.98;;
37163;Laerm;23057;48.554;14.454;2023-03-25T04:07:47;49.86;48.66;51.06;;
37163;Laerm;23057;48.554;14.454;2023-03-25T04:10:44;49.85;48.78;51.46;;
37163;Laerm;23057;48.554;14.454;2023-03-25T04:13:23;49.85;48.45;50.96;;
37163;Laerm;23057;48.554;14.454;2023-03-25T04:15:58;49.85;48.74;51.09;;
37163;Laerm;23057;48.554;14.454;2023-03-25T04:18:29;49.84;48.76;50.95;;
37163;Laerm;23057;48.554;14.454;2023-03-25T04:21:03;49.86;48.78;51.53;;
37163;Laerm;23057;48.554;14.454;2023-03-25T04:23:34;49.84;48.78;50.86;;
37163;Laerm;23057;48.554;14.454;2023-03-25T04:26:08;49.85;48.83;51.09;;
37163;Laerm;23057;48.554;14.454;2023-03-25T04:28:39;49.84;48.69;50.86;;
37163;Laerm;23057;48.554;14.454;2023-03-25T04:31:15;49.85;48.87;51.00;;
37163;Laerm;23057;48.554;14.454;2023-03-25T04:33:47;49.85;48.90;50.83;;
37163;Laerm;23057;48.554;14.454;2023-03-25T04:36:17;49.85;48.67;51.26;;
37163;Laerm;23057;48.554;14.454;2023-03-25T04:38:49;49.85;48.80;51.07;;
37163;Laerm;23057;48.554;14.454;2023-03-25T04:41:22;49.84;48.83;51.44;;
37163;Laerm;23057;48.554;14.454;2023-03-25T04:43:53;49.85;48.62;51.59;;
37163;Laerm;23057;48.554;14.454;2023-03-25T04:46:24;49.85;48.71;51.82;;
37163;Laerm;23057;48.554;14.454;2023-03-25T04:48:55;49.86;48.52;50.91;;
37163;Laerm;23057;48.554;14.454;2023-03-25T04:51:26;49.85;48.81;51.71;;
37163;Laerm;23057;48.554;14.454;2023-03-25T04:53:58;49.85;48.81;50.90;;
37163;Laerm;23057;48.554;14.454;2023-03-25T04:56:29;49.86;48.69;51.68;;
37163;Laerm;23057;48.554;14.454;2023-03-25T04:58:59;49.86;48.78;51.21;;
37163;Laerm;23057;48.554;14.454;2023-03-25T05:01:31;49.85;48.74;55.14;;
37163;Laerm;23057;48.554;14.454;2023-03-25T05:04:04;49.85;48.78;51.05;;
37163;Laerm;23057;48.554;14.454;2023-03-25T05:06:38;49.85;48.77;51.25;;
37163;Laerm;23057;48.554;14.454;2023-03-25T05:09:14;49.86;48.87;51.22;;
37163;Laerm;23057;48.554;14.454;2023-03-25T05:11:46;49.85;48.77;51.35;;
37163;Laerm;23057;48.554;14.454;2023-03-25T05:14:20;49.85;48.69;51.22;;
37163;Laerm;23057;48.554;14.454;2023-03-25T05:16:51;49.85;48.81;51.63;;
37163;Laerm;23057;48.554;14.454;2023-03-25T05:19:21;49.85;48.81;52.48;;
37163;Laerm;23057;48.554;14.454;2023-03-25T05:21:52;49.85;48.84;51.08;;
37163;Laerm;23057;48.554;14.454;2023-03-25T05:24:25;49.85;48.63;51.08;;
37163;Laerm;23057;48.554;14.454;2023-03-25T05:26:57;49.85;48.69;51.62;;
37163;Laerm;23057;48.554;14.454;2023-03-25T05:29:31;49.84;48.77;51.59;;
37163;Laerm;23057;48.554;14.454;2023-03-25T05:32:03;49.86;48.25;51.28;;
37163;Laerm;23057;48.554;14.454;2023-03-25T05:34:34;49.87;48.77;51.69;;
37163;Laerm;23057;48.554;14.454;2023-03-25T05:37:04;49.86;48.80;50.90;;
37163;Laerm;23057;48.554;14.454;2023-03-25T05:39:35;49.85;48.73;50.88;;
37163;Laerm;23057;48.554;14.454;2023-03-25T05:42:07;49.86;48.74;51.69;;
37163;Laerm;23057;48.554;14.454;2023-03-25T05:44:40;49.86;48.90;51.67;;
37163;Laerm;23057;48.554;14.454;2023-03-25T05:47:21;49.86;48.57;51.21;;
37163;Laerm;23057;48.554;14.454;2023-03-25T05:49:52;49.86;48.63;51.38;;
37163;Laerm;23057;48.554;14.454;2023-03-25T05:52:23;49.87;48.85;50.84;;
37163;Laerm;23057;48.554;14.454;2023-03-25T05:54:55;49.86;48.85;51.72;;
37163;Laerm;23057;48.554;14.454;2023-03-25T05:57:25;49.86;48.90;50.92;;
37163;Laerm;23057;48.554;14.454;2023-03-25T05:59:56;49.85;48.87;51.76;;
37163;Laerm;23057;48.554;14.454;2023-03-25T06:02:27;49.86;48.87;51.54;;
37163;Laerm;23057;48.554;14.454;2023-03-25T06:04:57;49.87;48.85;51.71;;
37163;Laerm;23057;48.554;14.454;2023-03-25T06:07:28;49.86;48.74;52.14;;
37163;Laerm;23057;48.554;14.454;2023-03-25T06:09:59;49.86;48.84;52.00;;
37163;Laerm;23057;48.554;14.454;2023-03-25T06:12:30;49.87;48.63;51.38;;
37163;Laerm;23057;48.554;14.454;2023-03-25T06:15:09;49.86;48.60;51.49;;
37163;Laerm;23057;48.554;14.454;2023-03-25T06:17:40;49.86;48.74;51.65;;
37163;Laerm;23057;48.554;14.454;2023-03-25T06:20:13;49.86;48.90;51.40;;
37163;Laerm;23057;48.554;14.454;2023-03-25T06:22:45;49.86;48.71;51.61;;
37163;Laerm;23057;48.554;14.454;2023-03-25T06:25:20;49.85;48.87;51.47;;
37163;Laerm;23057;48.554;14.454;2023-03-25T06:27:50;49.86;48.80;51.09;;
37163;Laerm;23057;48.554;14.454;2023-03-25T06:30:21;49.86;48.85;51.77;;
37163;Laerm;23057;48.554;14.454;2023-03-25T06:32:52;49.87;48.85;51.80;;
37163;Laerm;23057;48.554;14.454;2023-03-25T06:35:25;49.87;48.61;51.04;;
37163;Laerm;23057;48.554;14.454;2023-03-25T06:37:55;49.85;48.81;50.87;;
37163;Laerm;23057;48.554;14.454;2023-03-25T06:40:27;49.86;48.64;51.76;;
37163;Laerm;23057;48.554;14.454;2023-03-25T06:42:57;49.87;48.71;51.86;;
37163;Laerm;23057;48.554;14.454;2023-03-25T06:45:28;49.87;48.79;51.88;;
37163;Laerm;23057;48.554;14.454;2023-03-25T06:47:59;49.84;48.72;51.64;;
37163;Laerm;23057;48.554;14.454;2023-03-25T06:50:31;49.87;48.76;51.77;;
37163;Laerm;23057;48.554;14.454;2023-03-25T06:53:02;49.86;48.84;51.09;;
37163;Laerm;23057;48.554;14.454;2023-03-25T06:55:33;49.85;48.76;50.94;;
37163;Laerm;23057;48.554;14.454;2023-03-25T06:58:04;49.87;48.69;51.25;;
37163;Laerm;23057;48.554;14.454;2023-03-25T07:00:36;49.86;48.91;51.65;;
37163;Laerm;23057;48.554;14.454;2023-03-25T07:03:06;49.86;48.81;51.56;;
37163;Laerm;23057;48.554;14.454;2023-03-25T07:05:40;49.86;48.66;51.51;;
37163;Laerm;23057;48.554;14.454;2023-03-25T07:08:12;49.86;48.87;51.56;;
37163;Laerm;23057;48.554;14.454;2023-03-25T07:10:42;49.86;48.87;51.70;;
37163;Laerm;23057;48.554;14.454;2023-03-25T07:13:13;49.86;48.81;51.62;;
37163;Laerm;23057;48.554;14.454;2023-03-25T07:15:44;49.87;48.83;51.84;;
37163;Laerm;23057;48.554;14.454;2023-03-25T07:18:15;49.86;48.57;51.78;;
37163;Laerm;23057;48.554;14.454;2023-03-25T07:20:46;49.86;48.49;52.57;;
37163;Laerm;23057;48.554;14.454;2023-03-25T07:23:17;49.86;48.80;51.07;;
37163;Laerm;23057;48.554;14.454;2023-03-25T07:25:48;49.84;48.73;53.64;;
37163;Laerm;23057;48.554;14.454;2023-03-25T07:28:19;49.86;48.80;51.57;;
37163;Laerm;23057;48.554;14.454;2023-03-25T07:30:50;49.85;48.76;51.11;;
37163;Laerm;23057;48.554;14.454;2023-03-25T07:33:20;49.86;48.85;51.12;;
37163;Laerm;23057;48.554;14.454;2023-03-25T07:35:51;49.85;48.67;50.94;;
37163;Laerm;23057;48.554;14.454;2023-03-25T07:38:22;49.85;48.64;51.77;;
37163;Laerm;23057;48.554;14.454;2023-03-25T07:40:52;49.87;48.81;51.30;;
37163;Laerm;23057;48.554;14.454;2023-03-25T07:43:23;49.87;48.83;50.91;;
37163;Laerm;23057;48.554;14.454;2023-03-25T07:45:54;49.85;48.90;50.91;;
37163;Laerm;23057;48.554;14.454;2023-03-25T07:48:25;49.86;48.80;50.95;;
37163;Laerm;23057;48.554;14.454;2023-03-25T07:50:57;49.87;48.77;51.75;;
37163;Laerm;23057;48.554;14.454;2023-03-25T07:53:28;49.87;48.74;51.40;;
37163;Laerm;23057;48.554;14.454;2023-03-25T07:55:58;49.87;48.67;51.51;;
37163;Laerm;23057;48.554;14.454;2023-03-25T07:58:29;49.86;48.87;50.96;;
37163;Laerm;23057;48.554;14.454;2023-03-25T08:01:00;49.86;48.84;51.96;;
37163;Laerm;23057;48.554;14.454;2023-03-25T08:03:31;49.86;48.90;51.05;;
37163;Laerm;23057;48.554;14.454;2023-03-25T08:06:03;49.85;48.76;51.59;;
37163;Laerm;23057;48.554;14.454;2023-03-25T08:08:34;49.85;48.74;51.13;;
37163;Laerm;23057;48.554;14.454;2023-03-25T08:11:05;49.86;48.74;51.52;;
37163;Laerm;23057;48.554;14.454;2023-03-25T08:13:36;49.86;48.83;51.34;;
37163;Laerm;23057;48.554;14.454;2023-03-25T08:16:12;49.86;48.76;51.07;;
37163;Laerm;23057;48.554;14.454;2023-03-25T08:18:43;49.85;48.69;51.74;;
37163;Laerm;23057;48.554;14.454;2023-03-25T08:21:14;49.85;48.77;51.36;;
37163;Laerm;23057;48.554;14.454;2023-03-25T08:23:45;49.84;48.77;51.03;;
37163;Laerm;23057;48.554;14.454;2023-03-25T08:26:17;49.84;48.78;51.04;;
37163;Laerm;23057;48.554;14.454;2023-03-25T08:28:47;49.84;48.75;50.98;;
37163;Laerm;23057;48.554;14.454;2023-03-25T08:31:18;49.84;48.78;51.44;;
37163;Laerm;23057;48.554;14.454;2023-03-25T08:33:49;49.84;48.87;51.56;;
37163;Laerm;23057;48.554;14.454;2023-03-25T08:36:20;49.84;48.73;53.06;;
37163;Laerm;23057;48.554;14.454;2023-03-25T08:38:53;49.84;48.70;50.97;;
37163;Laerm;23057;48.554;14.454;2023-03-25T08:41:24;49.83;48.46;51.84;;
37163;Laerm;23057;48.554;14.454;2023-03-25T08:43:54;49.83;48.83;51.13;;
37163;Laerm;23057;48.554;14.454;2023-03-25T08:46:25;49.84;48.71;51.21;;
37163;Laerm;23057;48.554;14.454;2023-03-25T08:48:56;49.84;48.80;51.15;;
37163;Laerm;23057;48.554;14.454;2023-03-25T08:51:27;49.84;48.84;51.67;;
37163;Laerm;23057;48.554;14.454;2023-03-25T08:53:57;49.84;48.60;50.71;;
37163;Laerm;23057;48.554;14.454;2023-03-25T08:56:28;49.83;48.66;51.05;;
37163;Laerm;23057;48.554;14.454;2023-03-25T08:58:59;49.82;48.85;51.50;;
37163;Laerm;23057;48.554;14.454;2023-03-25T09:01:30;49.82;48.77;51.36;;
37163;Laerm;23057;48.554;14.454;2023-03-25T09:04:00;49.82;48.67;51.44;;
37163;Laerm;23057;48.554;14.454;2023-03-25T09:06:31;49.80;48.70;51.55;;
37163;Laerm;23057;48.554;14.454;2023-03-25T09:09:02;49.81;48.87;51.03;;
37163;Laerm;23057;48.554;14.454;2023-03-25T09:11:36;49.80;48.55;51.44;;
37163;Laerm;23057;48.554;14.454;2023-03-25T09:14:07;49.82;48.73;51.22;;
37163;Laerm;23057;48.554;14.454;2023-03-25T09:16:38;49.82;48.84;50.92;;
37163;Laerm;23057;48.554;14.454;2023-03-25T09:19:09;49.84;48.67;51.22;;
37163;Laerm;23057;48.554;14.454;2023-03-25T09:21:40;49.86;48.81;51.43;;
37163;Laerm;23057;48.554;14.454;2023-03-25T09:24:10;49.86;48.71;51.06;;
37163;Laerm;23057;48.554;14.454;2023-03-25T09:26:42;49.84;48.69;51.00;;
37163;Laerm;23057;48.554;14.454;2023-03-25T09:29:12;49.81;48.46;51.06;;
37163;Laerm;23057;48.554;14.454;2023-03-25T09:31:43;49.80;48.61;51.74;;
37163;Laerm;23057;48.554;14.454;2023-03-25T09:34:14;49.79;48.84;51.07;;
37163;Laerm;23057;48.554;14.454;2023-03-25T09:36:45;49.80;48.80;51.05;;
37163;Laerm;23057;48.554;14.454;2023-03-25T09:39:16;49.79;48.57;51.24;;
37163;Laerm;23057;48.554;14.454;2023-03-25T09:42:07;49.79;48.58;50.92;;
37163;Laerm;23057;48.554;14.454;2023-03-25T09:45:00;49.80;48.74;51.06;;
37163;Laerm;23057;48.554;14.454;2023-03-25T09:47:34;49.80;48.81;51.04;;
37163;Laerm;23057;48.554;14.454;2023-03-25T09:50:12;49.80;48.63;51.34;;
37163;Laerm;23057;48.554;14.454;2023-03-25T09:53:05;49.80;48.70;51.14;;
37163;Laerm;23057;48.554;14.454;2023-03-25T09:55:43;49.80;48.76;51.79;;
37163;Laerm;23057;48.554;14.454;2023-03-25T09:58:39;49.79;48.69;50.84;;
37163;Laerm;23057;48.554;14.454;2023-03-25T10:01:36;49.81;48.64;51.47;;
37163;Laerm;23057;48.554;14.454;2023-03-25T10:11:06;49.82;48.61;51.25;;
37163;Laerm;23057;48.554;14.454;2023-03-25T10:13:53;49.80;48.80;51.13;;
37163;Laerm;23057;48.554;14.454;2023-03-25T10:17:08;49.80;48.70;50.94;;
37163;Laerm;23057;48.554;14.454;2023-03-25T10:20:09;49.81;48.85;51.10;;
37163;Laerm;23057;48.554;14.454;2023-03-25T10:23:04;49.77;48.73;51.13;;
37163;Laerm;23057;48.554;14.454;2023-03-25T10:25:40;49.75;48.71;50.87;;
37163;Laerm;23057;48.554;14.454;2023-03-25T10:28:30;49.75;48.73;50.90;;
37163;Laerm;23057;48.554;14.454;2023-03-25T10:31:05;49.74;48.63;51.30;;
37163;Laerm;23057;48.554;14.454;2023-03-25T10:33:52;49.75;48.67;51.03;;
37163;Laerm;23057;48.554;14.454;2023-03-25T10:36:33;49.75;48.80;51.26;;
37163;Laerm;23057;48.554;14.454;2023-03-25T10:39:18;49.75;48.60;51.03;;
37163;Laerm;23057;48.554;14.454;2023-03-25T10:41:58;49.75;48.70;51.62;;
37163;Laerm;23057;48.554;14.454;2023-03-25T10:44:29;49.78;48.80;51.03;;
37163;Laerm;23057;48.554;14.454;2023-03-25T10:47:06;49.78;48.69;51.49;;
37163;Laerm;23057;48.554;14.454;2023-03-25T10:49:40;49.78;48.66;51.37;;
37163;Laerm;23057;48.554;14.454;2023-03-25T10:52:11;49.78;48.57;51.05;;
37163;Laerm;23057;48.554;14.454;2023-03-25T10:54:52;49.78;48.76;50.91;;
37163;Laerm;23057;48.554;14.454;2023-03-25T10:57:33;49.79;48.54;51.13;;
37163;Laerm;23057;48.554;14.454;2023-03-25T11:00:17;49.79;48.76;50.90;;
37163;Laerm;23057;48.554;14.454;2023-03-25T11:02:49;49.80;48.77;55.20;;
37163;Laerm;23057;48.554;14.454;2023-03-25T11:05:24;49.79;48.69;51.00;;
37163;Laerm;23057;48.554;14.454;2023-03-25T11:08:00;49.78;48.74;50.85;;
37163;Laerm;23057;48.554;14.454;2023-03-25T11:10:34;49.79;48.51;51.23;;
37163;Laerm;23057;48.554;14.454;2023-03-25T11:13:11;49.78;48.84;51.17;;
37163;Laerm;23057;48.554;14.454;2023-03-25T11:15:42;49.78;48.67;50.94;;
37163;Laerm;23057;48.554;14.454;2023-03-25T11:18:23;49.77;48.66;50.98;;
37163;Laerm;23057;48.554;14.454;2023-03-25T11:21:02;49.78;48.76;51.15;;
37163;Laerm;23057;48.554;14.454;2023-03-25T11:23:36;49.78;48.74;51.05;;
37163;Laerm;23057;48.554;14.454;2023-03-25T11:26:55;49.78;48.51;50.94;;
37163;Laerm;23057;48.554;14.454;2023-03-25T11:29:08;49.78;48.72;51.22;;
37163;Laerm;23057;48.554;14.454;2023-03-25T11:31:42;49.78;48.80;51.03;;
37163;Laerm;23057;48.554;14.454;2023-03-25T11:34:19;49.77;48.87;50.92;;
37163;Laerm;23057;48.554;14.454;2023-03-25T11:37:00;49.78;48.71;51.20;;
37163;Laerm;23057;48.554;14.454;2023-03-25T11:39:38;49.76;48.54;51.19;;
37163;Laerm;23057;48.554;14.454;2023-03-25T11:44:51;49.75;48.55;50.74;;
37163;Laerm;23057;48.554;14.454;2023-03-25T11:47:34;49.74;48.69;50.86;;
37163;Laerm;23057;48.554;14.454;2023-03-25T11:50:23;49.75;48.64;51.14;;
37163;Laerm;23057;48.554;14.454;2023-03-25T11:53:00;49.75;48.60;50.98;;
37163;Laerm;23057;48.554;14.454;2023-03-25T11:55:47;49.73;48.70;51.75;;
37163;Laerm;23057;48.554;14.454;2023-03-25T11:58:25;49.74;48.45;50.79;;
37163;Laerm;23057;48.554;14.454;2023-03-25T12:01:09;49.73;48.57;51.56;;
37163;Laerm;23057;48.554;14.454;2023-03-25T12:03:50;49.72;48.61;51.50;;
37163;Laerm;23057;48.554;14.454;2023-03-25T12:06:21;49.70;48.55;52.00;;
37163;Laerm;23057;48.554;14.454;2023-03-25T12:08:59;49.69;48.58;50.71;;
37163;Laerm;23057;48.554;14.454;2023-03-25T12:11:45;49.70;48.60;51.49;;
37163;Laerm;23057;48.554;14.454;2023-03-25T12:17:21;49.72;48.64;50.99;;
37163;Laerm;23057;48.554;14.454;2023-03-25T12:20:12;49.72;48.71;51.25;;
37163;Laerm;23057;48.554;14.454;2023-03-25T12:29:29;49.72;48.37;50.92;;
37163;Laerm;23057;48.554;14.454;2023-03-25T12:32:21;49.74;48.61;50.97;;
37163;Laerm;23057;48.554;14.454;2023-03-25T12:35:27;49.74;48.54;50.92;;
37163;Laerm;23057;48.554;14.454;2023-03-25T12:41:28;49.74;48.66;51.13;;
37163;Laerm;23057;48.554;14.454;2023-03-25T12:44:09;49.76;48.67;51.51;;
37163;Laerm;23057;48.554;14.454;2023-03-25T12:55:54;49.76;48.66;50.84;;
37163;Laerm;23057;48.554;14.454;2023-03-25T13:07:25;49.76;48.56;51.10;;
37163;Laerm;23057;48.554;14.454;2023-03-25T13:12:56;49.75;48.48;51.55;;
37163;Laerm;23057;48.554;14.454;2023-03-25T13:15:40;49.75;48.73;52.29;;
37163;Laerm;23057;48.554;14.454;2023-03-25T13:18:27;49.75;48.61;50.89;;
37163;Laerm;23057;48.554;14.454;2023-03-25T13:21:10;49.73;48.63;51.35;;
37163;Laerm;23057;48.554;14.454;2023-03-25T13:23:51;49.75;48.58;50.69;;
37163;Laerm;23057;48.554;14.454;2023-03-25T13:26:27;49.74;48.60;50.88;;
37163;Laerm;23057;48.554;14.454;2023-03-25T13:29:03;49.74;48.69;51.24;;
37163;Laerm;23057;48.554;14.454;2023-03-25T13:31:39;49.73;48.64;51.03;;
37163;Laerm;23057;48.554;14.454;2023-03-25T13:34:34;49.72;48.64;51.05;;
37163;Laerm;23057;48.554;14.454;2023-03-25T13:37:25;49.72;48.49;51.08;;
37163;Laerm;23057;48.554;14.454;2023-03-25T13:40:22;49.74;48.69;50.81;;
37163;Laerm;23057;48.554;14.454;2023-03-25T13:43:20;49.74;48.71;51.11;;
37163;Laerm;23057;48.554;14.454;2023-03-25T13:46:10;49.75;48.80;50.85;;
37163;Laerm;23057;48.554;14.454;2023-03-25T13:49:44;49.76;48.67;51.42;;
37163;Laerm;23057;48.554;14.454;2023-03-25T13:51:48;49.77;48.69;51.36;;
37163;Laerm;23057;48.554;14.454;2023-03-25T13:54:35;49.76;48.71;50.78;;
37163;Laerm;23057;48.554;14.454;2023-03-25T14:11:43;49.75;48.51;51.30;;
37163;Laerm;23057;48.554;14.454;2023-03-25T14:14:19;49.73;48.71;50.84;;
37163;Laerm;23057;48.554;14.454;2023-03-25T14:16:56;49.75;48.61;50.77;;
37163;Laerm;23057;48.554;14.454;2023-03-25T14:19:38;49.78;48.76;53.05;;
37163;Laerm;23057;48.554;14.454;2023-03-25T14:22:21;49.75;48.74;51.53;;
37163;Laerm;23057;48.554;14.454;2023-03-25T14:24:54;49.75;48.57;51.10;;
37163;Laerm;23057;48.554;14.454;2023-03-25T14:27:30;49.76;48.76;51.18;;
37163;Laerm;23057;48.554;14.454;2023-03-25T14:30:17;49.77;48.76;51.17;;
37163;Laerm;23057;48.554;14.454;2023-03-25T14:32:50;49.79;48.78;51.66;;
37163;Laerm;23057;48.554;14.454;2023-03-25T14:43:32;49.81;48.74;50.94;;
37163;Laerm;23057;48.554;14.454;2023-03-25T14:48:51;49.86;48.81;51.20;;
37163;Laerm;23057;48.554;14.454;2023-03-25T14:57:16;49.87;48.74;51.22;;
37163;Laerm;23057;48.554;14.454;2023-03-25T14:59:59;49.87;48.76;50.99;;
37163;Laerm;23057;48.554;14.454;2023-03-25T15:02:41;49.87;48.64;51.56;;
37163;Laerm;23057;48.554;14.454;2023-03-25T15:05:22;49.87;48.76;51.03;;
37163;Laerm;23057;48.554;14.454;2023-03-25T15:08:09;49.88;48.84;50.80;;
37163;Laerm;23057;48.554;14.454;2023-03-25T15:10:44;49.88;48.70;51.79;;
37163;Laerm;23057;48.554;14.454;2023-03-25T15:19:21;49.88;48.80;51.54;;
37163;Laerm;23057;48.554;14.454;2023-03-25T15:24:36;49.87;48.84;51.00;;
37163;Laerm;23057;48.554;14.454;2023-03-25T15:27:14;49.87;48.74;51.09;;
37163;Laerm;23057;48.554;14.454;2023-03-25T15:30:31;49.88;48.83;51.82;;
37163;Laerm;23057;48.554;14.454;2023-03-25T15:33:37;49.87;48.51;50.87;;
37163;Laerm;23057;48.554;14.454;2023-03-25T15:46:26;49.87;48.63;51.93;;
37163;Laerm;23057;48.554;14.454;2023-03-25T15:52:29;49.88;48.82;50.96;;
37163;Laerm;23057;48.554;14.454;2023-03-25T15:55:14;49.88;48.80;50.87;;
37163;Laerm;23057;48.554;14.454;2023-03-25T15:57:53;49.89;48.74;51.17;;
37163;Laerm;23057;48.554;14.454;2023-03-25T16:00:51;49.89;48.74;51.38;;
37163;Laerm;23057;48.554;14.454;2023-03-25T16:03:27;49.90;48.71;51.08;;
37163;Laerm;23057;48.554;14.454;2023-03-25T16:06:02;49.92;48.78;51.16;;
37163;Laerm;23057;48.554;14.454;2023-03-25T16:08:39;49.91;48.78;50.94;;
37163;Laerm;23057;48.554;14.454;2023-03-25T16:14:10;49.89;48.70;51.30;;
37163;Laerm;23057;48.554;14.454;2023-03-25T16:16:54;49.89;48.94;51.93;;
37163;Laerm;23057;48.554;14.454;2023-03-25T16:19:36;49.89;48.71;51.37;;
37163;Laerm;23057;48.554;14.454;2023-03-25T16:22:29;49.88;48.94;51.26;;
37163;Laerm;23057;48.554;14.454;2023-03-25T16:25:11;49.89;48.77;54.91;;
37163;Laerm;23057;48.554;14.454;2023-03-25T16:27:50;49.88;48.90;50.95;;
37163;Laerm;23057;48.554;14.454;2023-03-25T16:30:26;49.87;48.85;51.50;;
37163;Laerm;23057;48.554;14.454;2023-03-25T16:35:47;49.88;48.77;51.23;;
37163;Laerm;23057;48.554;14.454;2023-03-25T16:38:21;49.88;48.63;51.14;;
37163;Laerm;23057;48.554;14.454;2023-03-25T16:41:19;49.87;48.63;51.33;;